Time;durP1;ratioP1;P1;durP2;ratioP2;P2;SDS_P1;SDS_P2;PMS_P1;PMS_P2;Temp;Humidity;BMP_temperature;BMP_pressure;BME280_temperature;BME280_humidity;BME280_pressure;Samples;Min_cycle;Max_cycle;Signal;HPM_P1;HPM_P2
2022/11/02 00:01:39;;;;;;;;;;;;;;;10.93;100.00;101133.06;5028308;28;19929;-76
2022/11/02 00:04:08;;;;;;;;;;;;;;;10.95;100.00;101127.72;5012657;28;20075;-78
2022/11/02 00:06:33;;;;;;;;;;;;;;;10.95;100.00;101143.59;5027432;28;19921;-76
2022/11/02 00:08:59;;;;;;;;;;;;;;;10.95;100.00;101136.50;5042153;28;19936;-76
2022/11/02 00:11:24;;;;;;;;;;;;;;;10.93;100.00;101138.38;5042097;28;19956;-75
2022/11/02 00:13:49;;;;;;;;;;;;;;;10.91;100.00;101137.56;5032430;28;19929;-75
2022/11/02 00:16:15;;;;;;;;;;;;;;;10.88;100.00;101128.91;5026562;28;19979;-75
2022/11/02 00:18:41;;;;;;;;;;;;;;;10.82;100.00;101125.56;5026702;28;19970;-74
2022/11/02 00:21:06;;;;;;;;;;;;;;;10.81;100.00;101109.75;5042313;28;19967;-75
2022/11/02 00:23:32;;;;;;;;;;;;;;;10.75;100.00;101088.81;5055608;28;19950;-74
2022/11/02 00:25:57;;;;;;;;;;;;;;;10.69;100.00;101095.25;5041972;28;19924;-76
2022/11/02 00:28:22;;;;;;;;;;;;;;;10.62;100.00;101086.66;5044973;28;20371;-76
2022/11/02 00:30:48;;;;;;;;;;;;;;;10.56;100.00;101094.88;5044250;28;19931;-75
2022/11/02 00:33:13;;;;;;;;;;;;;;;10.51;100.00;101095.06;5026211;28;19954;-75
2022/11/02 00:35:39;;;;;;;;;;;;;;;10.45;100.00;101096.19;5029005;28;19976;-75
2022/11/02 00:38:04;;;;;;;;;;;;;;;10.40;100.00;101069.00;5029682;28;19917;-75
2022/11/02 00:40:30;;;;;;;;;;;;;;;10.36;100.00;101063.91;5029797;28;19929;-76
2022/11/02 00:42:55;;;;;;;;;;;;;;;10.32;100.00;101063.16;5046178;28;19929;-76
2022/11/02 00:45:21;;;;;;;;;;;;;;;10.29;100.00;101066.81;5029829;28;19979;-75
2022/11/02 00:47:47;;;;;;;;;;;;;;;10.26;100.00;101068.72;5045505;28;20393;-75
2022/11/02 00:50:12;;;;;;;;;;;;;;;10.23;100.00;101076.78;5042578;28;19935;-75
2022/11/02 00:52:39;;;;;;;;;;;;;;;10.19;100.00;101082.19;5035188;28;19928;-76
2022/11/02 00:55:05;;;;;;;;;;;;;;;10.17;100.00;101072.59;5025839;28;20062;-75
2022/11/02 00:57:30;;;;;;;;;;;;;;;10.15;100.00;101085.88;5045287;28;19924;-76
2022/11/02 00:59:56;;;;;;;;;;;;;;;10.15;100.00;101082.38;5044711;28;20386;-75
2022/11/02 01:02:21;;;;;;;;;;;;;;;10.15;100.00;101083.22;5026043;28;19928;-75
2022/11/02 01:04:47;;;;;;;;;;;;;;;10.17;100.00;101089.34;5045012;28;19929;-76
2022/11/02 01:07:12;;;;;;;;;;;;;;;10.19;100.00;101079.53;5013541;28;20406;-76
2022/11/02 01:09:37;;;;;;;;;;;;;;;10.22;100.00;101088.28;5028954;28;19924;-75
2022/11/02 01:12:03;;;;;;;;;;;;;;;10.23;100.00;101079.44;5028966;28;20416;-75
2022/11/02 01:14:29;;;;;;;;;;;;;;;10.23;100.00;101084.72;5045294;28;20028;-75
2022/11/02 01:16:56;;;;;;;;;;;;;;;10.27;100.00;101086.31;5025170;28;19924;-76
2022/11/02 01:19:22;;;;;;;;;;;;;;;10.28;100.00;101083.59;5028964;28;20439;-75
2022/11/02 01:21:47;;;;;;;;;;;;;;;10.29;100.00;101093.25;5025162;28;19939;-76
2022/11/02 01:24:13;;;;;;;;;;;;;;;10.31;100.00;101098.50;5023206;28;20346;-76
2022/11/02 01:26:38;;;;;;;;;;;;;;;10.31;100.00;101109.94;5044598;28;20015;-76
2022/11/02 01:29:03;;;;;;;;;;;;;;;10.32;100.00;101105.50;5025298;28;20284;-76
2022/11/02 01:31:29;;;;;;;;;;;;;;;10.30;100.00;101096.78;5044298;28;19929;-76
2022/11/02 01:33:54;;;;;;;;;;;;;;;10.26;100.00;101092.53;5015487;28;20319;-76
2022/11/02 01:36:20;;;;;;;;;;;;;;;10.14;100.00;101083.31;5031608;28;19932;-76
2022/11/02 01:38:45;;;;;;;;;;;;;;;10.01;100.00;101096.13;5042939;28;20364;-76
2022/11/02 01:41:11;;;;;;;;;;;;;;;9.87;100.00;101094.88;5030679;28;19964;-76
2022/11/02 01:43:36;;;;;;;;;;;;;;;9.77;100.00;101067.09;5058597;28;19961;-76
2022/11/02 01:46:13;;;;;;;;;;;;;;;9.69;100.00;101069.16;5044325;28;19924;-77
2022/11/02 01:48:41;;;;;;;;;;;;;;;9.62;100.00;101068.53;5030886;28;19935;-76
2022/11/02 01:51:10;;;;;;;;;;;;;;;9.54;100.00;101066.19;5025526;28;19924;-75
2022/11/02 01:53:36;;;;;;;;;;;;;;;9.47;100.00;101072.59;5040732;28;19935;-77
2022/11/02 01:56:02;;;;;;;;;;;;;;;9.42;100.00;101072.78;5030525;28;19933;-76
2022/11/02 01:58:27;;;;;;;;;;;;;;;9.37;100.00;101075.59;5015807;28;19920;-76
2022/11/02 02:00:53;;;;;;;;;;;;;;;9.31;100.00;101067.03;5043726;28;19943;-76
2022/11/02 02:03:20;;;;;;;;;;;;;;;9.29;100.00;101066.22;5011859;28;20280;-76
2022/11/02 02:05:46;;;;;;;;;;;;;;;9.27;100.00;101061.00;5029094;28;20023;-75
2022/11/02 02:08:12;;;;;;;;;;;;;;;9.27;100.00;101057.50;5040692;28;19932;-76
2022/11/02 02:10:38;;;;;;;;;;;;;;;9.26;100.00;101061.91;5043813;28;20340;-76
2022/11/02 02:13:03;;;;;;;;;;;;;;;9.28;100.00;101053.94;5044002;28;19967;-76
2022/11/02 02:15:33;;;;;;;;;;;;;;;9.29;100.00;101059.16;5028256;28;19929;-77
2022/11/02 02:18:07;;;;;;;;;;;;;;;9.32;100.00;101059.03;5028344;28;19929;-76
2022/11/02 02:20:39;;;;;;;;;;;;;;;9.35;100.00;101063.34;5042016;28;19931;-76
2022/11/02 02:23:19;;;;;;;;;;;;;;;9.37;100.00;101069.44;5043269;28;19930;-76
2022/11/02 02:25:49;;;;;;;;;;;;;;;9.37;100.00;101057.09;5043529;28;19928;-75
2022/11/02 02:28:19;;;;;;;;;;;;;;;9.40;100.00;101052.59;5040800;28;19944;-76
2022/11/02 02:30:55;;;;;;;;;;;;;;;9.40;100.00;101048.19;5029102;28;19982;-77
2022/11/02 02:33:53;;;;;;;;;;;;;;;9.41;100.00;101049.91;5040260;28;19935;-77
2022/11/02 02:36:20;;;;;;;;;;;;;;;9.43;100.00;101060.44;5023853;28;19924;-76
2022/11/02 02:38:47;;;;;;;;;;;;;;;9.40;100.00;101050.84;5011203;28;19929;-77
2022/11/02 02:41:22;;;;;;;;;;;;;;;9.36;100.00;101068.59;5027580;28;20338;-76
2022/11/02 02:43:49;;;;;;;;;;;;;;;9.35;100.00;101055.41;5040212;28;20056;-77
2022/11/02 02:46:14;;;;;;;;;;;;;;;9.35;100.00;101052.78;5029238;28;19929;-76
2022/11/02 02:48:40;;;;;;;;;;;;;;;9.36;100.00;101047.44;5043385;28;19925;-77
2022/11/02 02:51:06;;;;;;;;;;;;;;;9.35;100.00;101043.09;5027149;28;19924;-77
2022/11/02 02:53:32;;;;;;;;;;;;;;;9.34;100.00;101030.81;5027172;28;19956;-76
2022/11/02 02:55:58;;;;;;;;;;;;;;;9.35;100.00;101044.84;5042806;28;21489;-77
2022/11/02 02:58:25;;;;;;;;;;;;;;;9.33;100.00;101052.81;5011132;28;20027;-77
2022/11/02 03:00:51;;;;;;;;;;;;;;;9.31;100.00;101052.03;5029093;28;20345;-76
2022/11/02 03:03:21;;;;;;;;;;;;;;;9.33;100.00;101047.53;5027388;28;19928;-76
2022/11/02 03:05:59;;;;;;;;;;;;;;;9.34;100.00;101051.94;5040075;28;20063;-76
2022/11/02 03:08:24;;;;;;;;;;;;;;;9.35;100.00;101047.50;5042732;28;20464;-77
2022/11/02 03:10:52;;;;;;;;;;;;;;;9.36;100.00;101042.16;5026969;28;19932;-77
2022/11/02 03:13:33;;;;;;;;;;;;;;;9.38;100.00;101039.47;5041981;28;19928;-76
2022/11/02 03:16:00;;;;;;;;;;;;;;;9.40;100.00;101039.38;5042517;28;20023;-76
2022/11/02 03:18:33;;;;;;;;;;;;;;;9.38;100.00;101032.38;5042424;28;19925;-76
2022/11/02 03:21:05;;;;;;;;;;;;;;;9.35;100.00;101021.94;5040551;28;19987;-76
2022/11/02 03:23:30;;;;;;;;;;;;;;;9.36;100.00;101023.66;5026732;28;19932;-76
2022/11/02 03:25:59;;;;;;;;;;;;;;;9.38;100.00;101027.09;5041986;28;19936;-76
2022/11/02 03:28:24;;;;;;;;;;;;;;;9.39;100.00;101027.97;5022977;28;20315;-77
2022/11/02 03:30:53;;;;;;;;;;;;;;;9.38;100.00;101029.75;5042222;28;19925;-76
2022/11/02 03:33:19;;;;;;;;;;;;;;;9.38;100.00;101035.03;5041823;28;19932;-76
2022/11/02 03:35:51;;;;;;;;;;;;;;;9.40;100.00;101042.03;5026438;28;19931;-77
2022/11/02 03:38:37;;;;;;;;;;;;;;;9.41;100.00;101049.06;5038727;28;20422;-76
2022/11/02 03:41:02;;;;;;;;;;;;;;;9.46;100.00;101057.66;5041407;28;19960;-76
2022/11/02 03:43:28;;;;;;;;;;;;;;;9.45;100.00;101055.94;5041915;28;20326;-76
2022/11/02 03:45:54;;;;;;;;;;;;;;;9.41;100.00;101055.19;5031767;28;19925;-76
2022/11/02 03:48:19;;;;;;;;;;;;;;;9.38;100.00;101055.31;5022816;28;19936;-76
2022/11/02 03:50:46;;;;;;;;;;;;;;;9.37;100.00;101061.50;5009726;28;20674;-76
2022/11/02 03:53:13;;;;;;;;;;;;;;;9.37;100.00;101059.75;5039098;28;20683;-76
2022/11/02 03:55:39;;;;;;;;;;;;;;;9.37;100.00;101072.94;5041851;28;19925;-76
2022/11/02 03:58:05;;;;;;;;;;;;;;;9.38;100.00;101074.66;5015371;28;19982;-76
2022/11/02 04:00:34;;;;;;;;;;;;;;;9.40;100.00;101081.66;5028611;28;19932;-76
2022/11/02 04:03:02;;;;;;;;;;;;;;;9.42;100.00;101083.34;5043958;28;19998;-76
2022/11/02 04:05:29;;;;;;;;;;;;;;;9.45;100.00;101092.94;5030689;28;20039;-77
2022/11/02 04:14:36;;;;;;;;;;;;;;;9.54;100.00;101097.91;5045333;28;20046;-76
2022/11/02 04:16:08;;;;;;;;;;;;;;;9.49;100.00;101098.06;5045976;28;19929;-77
2022/11/02 04:21:17;;;;;;;;;;;;;;;9.46;100.00;101102.59;5044434;28;19924;-78
2022/11/02 04:26:26;;;;;;;;;;;;;;;9.44;100.00;101120.28;5045895;28;19955;-78
2022/11/02 04:28:52;;;;;;;;;;;;;;;9.44;100.00;101107.09;5044967;28;19928;-77
2022/11/02 04:31:17;;;;;;;;;;;;;;;9.43;100.00;101114.13;5026325;28;19932;-78
2022/11/02 04:33:43;;;;;;;;;;;;;;;9.41;100.00;101112.50;5026477;28;19928;-78
2022/11/02 04:36:08;;;;;;;;;;;;;;;9.39;100.00;101101.97;5044861;28;19920;-78
2022/11/02 04:38:39;;;;;;;;;;;;;;;9.38;100.00;101109.03;5045216;28;19943;-77
2022/11/02 04:43:53;;;;;;;;;;;;;;;9.40;100.00;101116.91;5044561;28;20383;-77
2022/11/02 04:46:18;;;;;;;;;;;;;;;9.44;100.00;101122.94;5035468;28;21581;-77
2022/11/02 04:48:44;;;;;;;;;;;;;;;9.46;100.00;101131.66;5019096;28;19932;-78
2022/11/02 04:51:09;;;;;;;;;;;;;;;9.47;100.00;101122.81;5018789;28;20260;-78
2022/11/02 04:53:34;;;;;;;;;;;;;;;9.46;100.00;101126.38;5044906;28;19955;-77
2022/11/02 04:56:00;;;;;;;;;;;;;;;9.44;100.00;101115.88;5045116;28;19972;-77
2022/11/02 04:58:25;;;;;;;;;;;;;;;9.43;100.00;101137.06;5044366;28;20017;-77
2022/11/02 05:00:51;;;;;;;;;;;;;;;9.40;100.00;101139.81;5045058;28;21604;-77
2022/11/02 05:03:16;;;;;;;;;;;;;;;9.36;100.00;101145.22;5044525;28;20013;-77
2022/11/02 05:05:42;;;;;;;;;;;;;;;9.33;100.00;101141.81;5023309;28;19985;-77
2022/11/02 05:08:07;;;;;;;;;;;;;;;9.32;100.00;101155.97;5042194;28;19929;-78
2022/11/02 05:10:33;;;;;;;;;;;;;;;9.29;100.00;101151.63;5045055;28;20380;-78
2022/11/02 05:13:01;;;;;;;;;;;;;;;9.29;100.00;101156.03;5044232;28;19952;-78
2022/11/02 05:15:27;;;;;;;;;;;;;;;9.28;100.00;101160.50;5044724;28;19928;-77
2022/11/02 05:17:52;;;;;;;;;;;;;;;9.28;100.00;101160.50;5031706;28;19929;-78
2022/11/02 05:20:18;;;;;;;;;;;;;;;9.28;100.00;101165.78;5030391;28;19932;-78
2022/11/02 05:22:43;;;;;;;;;;;;;;;9.27;100.00;101164.06;5044782;28;20320;-78
2022/11/02 05:25:09;;;;;;;;;;;;;;;9.28;100.00;101171.06;5044541;28;19948;-78
2022/11/02 05:27:34;;;;;;;;;;;;;;;9.28;100.00;101176.34;5043904;28;19928;-78
2022/11/02 05:30:02;;;;;;;;;;;;;;;9.29;100.00;101177.19;5025046;28;19951;-77
2022/11/02 05:32:28;;;;;;;;;;;;;;;9.30;100.00;101184.19;5030594;28;19924;-78
2022/11/02 05:34:54;;;;;;;;;;;;;;;9.31;100.00;101175.38;5017877;28;19935;-79
2022/11/02 05:37:19;;;;;;;;;;;;;;;9.30;100.00;101182.44;5034382;28;19981;-78
2022/11/02 05:39:45;;;;;;;;;;;;;;;9.31;100.00;101192.06;5034340;28;20373;-78
2022/11/02 05:42:10;;;;;;;;;;;;;;;9.32;100.00;101185.03;5028462;28;19939;-78
2022/11/02 05:44:36;;;;;;;;;;;;;;;9.32;100.00;101177.94;5043715;28;20023;-78
2022/11/02 05:47:02;;;;;;;;;;;;;;;9.33;100.00;101187.59;5028358;28;20198;-78
2022/11/02 05:49:27;;;;;;;;;;;;;;;9.34;100.00;101191.09;5024698;28;19935;-78
2022/11/02 05:51:53;;;;;;;;;;;;;;;9.36;100.00;101198.06;5043868;28;19944;-77
2022/11/02 05:54:18;;;;;;;;;;;;;;;9.41;100.00;101205.84;5028380;28;20082;-78
2022/11/02 05:56:44;;;;;;;;;;;;;;;9.43;100.00;101204.00;5041206;28;20078;-78
2022/11/02 05:59:09;;;;;;;;;;;;;;;9.44;100.00;101213.66;5043282;28;19960;-78
2022/11/02 06:01:34;;;;;;;;;;;;;;;9.46;100.00;101219.75;5044639;28;19920;-78
2022/11/02 06:04:00;;;;;;;;;;;;;;;9.48;100.00;101230.28;5044142;28;19935;-77
2022/11/02 06:06:25;;;;;;;;;;;;;;;9.49;100.00;101238.13;5043424;28;19929;-78
2022/11/02 06:08:50;;;;;;;;;;;;;;;9.49;100.00;101247.88;5043476;28;20347;-78
2022/11/02 06:11:16;;;;;;;;;;;;;;;9.49;100.00;101245.22;5044817;28;19924;-79
2022/11/02 06:13:41;;;;;;;;;;;;;;;9.48;100.00;101257.56;5027819;28;19925;-79
2022/11/02 06:16:10;;;;;;;;;;;;;;;9.46;100.00;101259.41;5023942;28;20004;-77
2022/11/02 06:18:36;;;;;;;;;;;;;;;9.43;100.00;101269.22;5028500;28;20398;-78
2022/11/02 06:21:01;;;;;;;;;;;;;;;9.38;100.00;101267.56;5027815;28;19925;-77
2022/11/02 06:23:27;;;;;;;;;;;;;;;9.35;100.00;101262.41;5027567;28;20312;-78
2022/11/02 06:25:53;;;;;;;;;;;;;;;9.33;100.00;101272.16;5027455;28;20447;-78
2022/11/02 06:28:18;;;;;;;;;;;;;;;9.33;100.00;101274.78;5027451;28;20396;-78
2022/11/02 06:30:44;;;;;;;;;;;;;;;9.34;100.00;101276.53;5020998;28;19931;-78
2022/11/02 06:33:09;;;;;;;;;;;;;;;9.36;100.00;101287.03;5043244;28;19982;-78
2022/11/02 06:35:34;;;;;;;;;;;;;;;9.38;100.00;101288.72;5027153;28;19925;-78
2022/11/02 06:38:00;;;;;;;;;;;;;;;9.45;100.00;101299.09;5026975;28;20349;-78
2022/11/02 06:40:25;;;;;;;;;;;;;;;9.48;100.00;101320.16;5043327;28;19935;-78
2022/11/02 06:42:55;;;;;;;;;;;;;;;9.49;100.00;101325.34;5042736;28;20384;-80
2022/11/02 06:45:20;;;;;;;;;;;;;;;9.47;100.00;101313.97;5042905;28;19933;-78
2022/11/02 06:47:46;;;;;;;;;;;;;;;9.37;100.00;101320.47;5036571;28;20487;-78
2022/11/02 06:50:12;;;;;;;;;;;;;;;9.27;100.00;101322.56;5033235;28;19933;-78
2022/11/02 06:52:47;;;;;;;;;;;;;;;9.22;100.00;101343.00;5027088;28;20392;-78
2022/11/02 06:55:13;;;;;;;;;;;;;;;9.15;100.00;101352.03;5026775;28;19968;-78
2022/11/02 06:57:38;;;;;;;;;;;;;;;9.09;100.00;101355.69;5027416;28;20437;-78
2022/11/02 07:00:04;;;;;;;;;;;;;;;9.07;100.00;101363.69;5023526;28;19928;-78
2022/11/02 07:02:30;;;;;;;;;;;;;;;9.08;100.00;101381.28;5043179;28;20005;-78
2022/11/02 07:04:55;;;;;;;;;;;;;;;9.12;100.00;101370.59;5022881;28;19967;-78
2022/11/02 07:07:21;;;;;;;;;;;;;;;9.15;100.00;101381.94;5042797;28;19940;-78
2022/11/02 07:09:46;;;;;;;;;;;;;;;9.18;100.00;101403.00;5042223;28;19935;-78
2022/11/02 07:12:12;;;;;;;;;;;;;;;9.22;100.00;101385.25;5027124;28;19932;-77
2022/11/02 07:14:37;;;;;;;;;;;;;;;9.22;100.00;101396.69;5042153;28;19997;-78
2022/11/02 07:17:03;;;;;;;;;;;;;;;9.21;100.00;101402.03;5039954;28;19995;-77
2022/11/02 07:19:28;;;;;;;;;;;;;;;9.17;100.00;101395.09;5041656;28;19939;-78
2022/11/02 07:21:54;;;;;;;;;;;;;;;9.13;100.00;101407.53;5039884;28;19928;-78
2022/11/02 07:24:19;;;;;;;;;;;;;;;9.10;100.00;101405.84;5042918;28;19963;-79
2022/11/02 07:26:49;;;;;;;;;;;;;;;9.07;100.00;101411.25;5056233;28;20670;-78
2022/11/02 07:29:15;;;;;;;;;;;;;;;9.06;100.00;101417.41;5042646;28;19928;-80
2022/11/02 07:31:40;;;;;;;;;;;;;;;9.05;100.00;101420.97;5041740;28;20040;-78
2022/11/02 07:34:06;;;;;;;;;;;;;;;9.04;100.00;101431.59;5055751;28;19929;-78
2022/11/02 07:36:31;;;;;;;;;;;;;;;9.04;100.00;101443.00;5042045;28;19935;-78
2022/11/02 07:38:57;;;;;;;;;;;;;;;9.05;100.00;101439.44;5030622;28;19920;-78
2022/11/02 07:41:22;;;;;;;;;;;;;;;9.09;100.00;101446.38;5030591;28;20031;-78
2022/11/02 07:43:48;;;;;;;;;;;;;;;9.14;100.00;101455.97;5031124;28;20551;-78
2022/11/02 07:46:13;;;;;;;;;;;;;;;9.18;100.00;101465.50;5046389;28;20114;-78
2022/11/02 07:48:38;;;;;;;;;;;;;;;9.24;100.00;101474.13;5046052;28;20350;-78
2022/11/02 07:51:05;;;;;;;;;;;;;;;9.31;100.00;101481.88;5046053;28;20393;-78
2022/11/02 07:53:31;;;;;;;;;;;;;;;9.36;100.00;101483.47;5030966;28;19932;-78
2022/11/02 07:55:58;;;;;;;;;;;;;;;9.41;100.00;101488.59;5045211;28;20414;-85
2022/11/02 07:58:23;;;;;;;;;;;;;;;9.47;100.00;101493.72;5045880;28;20015;-78
2022/11/02 08:00:49;;;;;;;;;;;;;;;9.50;100.00;101498.03;5046170;28;20032;-77
2022/11/02 08:03:14;;;;;;;;;;;;;;;9.53;100.00;101497.09;5044645;28;19956;-78
2022/11/02 08:05:41;;;;;;;;;;;;;;;9.58;100.00;101506.59;5045601;28;19933;-78
2022/11/02 08:08:08;;;;;;;;;;;;;;;9.61;100.00;101509.16;5029982;28;20015;-78
2022/11/02 08:10:34;;;;;;;;;;;;;;;9.63;100.00;101509.97;5015668;28;19925;-78
2022/11/02 08:12:59;;;;;;;;;;;;;;;9.67;100.00;101510.75;5045557;28;20315;-78
2022/11/02 08:15:25;;;;;;;;;;;;;;;9.73;100.00;101505.25;5025259;28;19932;-78
2022/11/02 08:18:01;;;;;;;;;;;;;;;9.76;100.00;101509.59;5042995;28;20027;-78
2022/11/02 08:20:27;;;;;;;;;;;;;;;9.77;100.00;101521.91;5042825;28;19929;-79
2022/11/02 08:22:52;;;;;;;;;;;;;;;9.76;100.00;101521.03;5026334;28;19936;-78
2022/11/02 08:25:18;;;;;;;;;;;;;;;9.77;100.00;101521.91;5012877;28;20107;-78
2022/11/02 08:27:43;;;;;;;;;;;;;;;9.80;100.00;101532.38;5045175;28;20002;-78
2022/11/02 08:30:09;;;;;;;;;;;;;;;9.86;100.00;101532.19;5059552;28;19929;-79
2022/11/02 08:32:35;;;;;;;;;;;;;;;9.93;100.00;101530.22;5025555;28;19925;-77
2022/11/02 08:35:00;;;;;;;;;;;;;;;9.97;100.00;101537.13;5024793;28;19942;-78
2022/11/02 08:37:26;;;;;;;;;;;;;;;9.99;100.00;101542.38;5044954;28;19928;-78
2022/11/02 08:39:51;;;;;;;;;;;;;;;9.99;100.00;101543.25;5024726;28;20437;-80
2022/11/02 08:42:17;;;;;;;;;;;;;;;10.00;100.00;101552.03;5045144;28;19928;-78
2022/11/02 08:44:42;;;;;;;;;;;;;;;10.03;100.00;101554.59;5045145;28;20017;-79
2022/11/02 08:47:08;;;;;;;;;;;;;;;10.08;100.00;101563.22;5044888;28;19947;-78
2022/11/02 08:49:35;;;;;;;;;;;;;;;10.11;100.00;101559.63;5042215;28;19940;-78
2022/11/02 08:52:01;;;;;;;;;;;;;;;10.13;100.00;101577.19;5045118;28;19963;-78
2022/11/02 08:54:26;;;;;;;;;;;;;;;10.17;100.00;101573.53;5045271;28;19982;-77
2022/11/02 08:56:52;;;;;;;;;;;;;;;10.20;100.00;101572.59;5044934;28;19928;-78
2022/11/02 08:59:17;;;;;;;;;;;;;;;10.24;100.00;101576.84;5045654;28;19925;-78
2022/11/02 09:01:43;;;;;;;;;;;;;;;10.25;100.00;101570.63;5045146;28;19929;-79
2022/11/02 09:04:08;;;;;;;;;;;;;;;10.27;100.00;101589.13;5029372;28;19960;-80
2022/11/02 09:06:34;;;;;;;;;;;;;;;10.28;100.00;101593.50;5044874;28;20047;-78
2022/11/02 09:08:59;;;;;;;;;;;;;;;10.28;100.00;101602.31;5044576;28;19929;-81
2022/11/02 09:11:24;;;;;;;;;;;;;;;10.27;100.00;101590.00;5044250;28;19924;-78
2022/11/02 09:13:50;;;;;;;;;;;;;;;10.27;100.00;101610.28;5045052;28;19940;-80
2022/11/02 09:16:15;;;;;;;;;;;;;;;10.30;100.00;101594.31;5025697;28;19925;-78
2022/11/02 09:18:40;;;;;;;;;;;;;;;10.33;100.00;101607.44;5044415;28;20016;-78
2022/11/02 09:21:06;;;;;;;;;;;;;;;10.38;100.00;101624.06;5044331;28;20007;-79
2022/11/02 09:23:31;;;;;;;;;;;;;;;10.45;100.00;101615.03;5025369;28;20470;-77
2022/11/02 09:25:57;;;;;;;;;;;;;;;10.54;100.00;101624.47;5028767;28;19933;-78
2022/11/02 09:28:23;;;;;;;;;;;;;;;10.63;100.00;101636.53;5044439;28;20005;-78
2022/11/02 09:30:48;;;;;;;;;;;;;;;10.74;100.00;101646.78;5043103;28;19932;-81
2022/11/02 09:33:14;;;;;;;;;;;;;;;10.83;100.00;101640.28;5043970;28;19981;-78
2022/11/02 09:35:41;;;;;;;;;;;;;;;10.89;100.00;101650.66;5028490;28;19932;-79
2022/11/02 09:38:07;;;;;;;;;;;;;;;10.92;100.00;101661.16;5044453;28;19929;-77
2022/11/02 09:40:36;;;;;;;;;;;;;;;10.96;100.00;101669.88;5043559;28;20402;-77
2022/11/02 09:43:09;;;;;;;;;;;;;;;10.98;100.00;101660.97;5028170;28;19928;-77
2022/11/02 09:45:35;;;;;;;;;;;;;;;11.00;100.00;101676.78;5041832;28;19939;-78
2022/11/02 09:48:01;;;;;;;;;;;;;;;11.03;100.00;101689.06;5041062;28;19928;-78
2022/11/02 09:50:29;;;;;;;;;;;;;;;11.06;100.00;101691.63;5043788;28;19932;-79
2022/11/02 09:52:59;;;;;;;;;;;;;;;11.10;100.00;101709.13;5027918;28;19933;-79
2022/11/02 09:55:26;;;;;;;;;;;;;;;11.14;100.00;101702.84;5028052;28;19956;-77
2022/11/02 09:57:54;;;;;;;;;;;;;;;11.21;100.00;101708.78;5040969;28;19983;-77
2022/11/02 10:00:19;;;;;;;;;;;;;;;11.29;100.00;101709.41;5043136;28;19928;-78
2022/11/02 10:02:54;;;;;;;;;;;;;;;11.38;100.00;101722.31;5028092;28;19963;-76
2022/11/02 10:05:22;;;;;;;;;;;;;;;11.49;100.00;101715.78;5027657;28;20163;-77
2022/11/02 10:07:53;;;;;;;;;;;;;;;11.54;100.00;101712.03;5043678;28;20424;-77
2022/11/02 10:10:31;;;;;;;;;;;;;;;11.60;100.00;101726.00;5013170;28;20302;-77
2022/11/02 10:12:59;;;;;;;;;;;;;;;11.71;100.00;101731.78;5010583;28;20505;-77
2022/11/02 10:15:27;;;;;;;;;;;;;;;11.78;100.00;101719.19;5043787;28;20348;-78
2022/11/02 10:17:54;;;;;;;;;;;;;;;11.77;100.00;101731.56;5040385;28;20501;-76
2022/11/02 10:20:34;;;;;;;;;;;;;;;11.76;100.00;101729.84;5057192;28;21595;-77
2022/11/02 10:23:04;;;;;;;;;;;;;;;11.73;100.00;101737.91;5029686;28;19936;-78
2022/11/02 10:25:30;;;;;;;;;;;;;;;11.69;100.00;101733.63;5040426;28;20032;-77
2022/11/02 10:28:13;;;;;;;;;;;;;;;11.63;100.00;101732.06;5027435;28;19935;-77
2022/11/02 10:30:38;;;;;;;;;;;;;;;11.61;100.00;101738.34;5026268;28;20081;-77
2022/11/02 10:33:09;;;;;;;;;;;;;;;11.59;100.00;101743.69;5027446;28;19925;-78
2022/11/02 10:35:44;;;;;;;;;;;;;;;11.60;100.00;101749.88;5027294;28;20033;-77
2022/11/02 10:38:28;;;;;;;;;;;;;;;11.62;100.00;101751.56;5029226;28;19936;-78
2022/11/02 10:40:59;;;;;;;;;;;;;;;11.68;100.00;101756.63;5033205;28;19935;-77
2022/11/02 10:43:43;;;;;;;;;;;;;;;11.74;100.00;101766.16;5033469;28;19935;-77
2022/11/02 10:46:29;;;;;;;;;;;;;;;11.81;98.81;101761.50;5041825;28;21650;-77
2022/11/02 10:49:04;;;;;;;;;;;;;;;11.88;99.88;101780.72;5042988;28;19932;-79
2022/11/02 10:51:30;;;;;;;;;;;;;;;11.92;100.00;101764.63;5027755;28;20393;-79
2022/11/02 10:53:55;;;;;;;;;;;;;;;11.95;99.32;101755.69;5041688;28;19936;-79
2022/11/02 10:56:21;;;;;;;;;;;;;;;11.96;99.43;101760.09;5042894;28;19943;-77
2022/11/02 10:58:51;;;;;;;;;;;;;;;11.93;97.94;101768.16;5042941;28;19927;-77
2022/11/02 11:01:17;;;;;;;;;;;;;;;11.90;96.61;101770.91;5039146;28;19928;-77
2022/11/02 11:03:55;;;;;;;;;;;;;;;11.82;96.25;101777.38;5015888;28;19924;-77
2022/11/02 11:06:20;;;;;;;;;;;;;;;11.79;97.24;101789.88;5043321;28;20047;-77
2022/11/02 11:08:48;;;;;;;;;;;;;;;11.78;99.07;101788.16;5010301;28;19931;-77
2022/11/02 11:11:14;;;;;;;;;;;;;;;11.75;98.39;101790.91;5023442;28;19928;-77
2022/11/02 11:13:42;;;;;;;;;;;;;;;11.78;98.89;101788.16;5042956;28;19929;-77
2022/11/02 11:16:08;;;;;;;;;;;;;;;11.81;96.09;101791.56;5026933;28;19939;-77
2022/11/02 11:18:33;;;;;;;;;;;;;;;11.80;94.28;101788.94;5046093;28;19929;-77
2022/11/02 11:20:59;;;;;;;;;;;;;;;11.79;95.43;101793.41;5010654;28;20028;-77
2022/11/02 11:23:25;;;;;;;;;;;;;;;11.78;98.73;101788.16;5042133;28;19929;-77
2022/11/02 11:25:56;;;;;;;;;;;;;;;11.76;94.59;101796.16;5026874;28;19928;-76
2022/11/02 11:28:23;;;;;;;;;;;;;;;11.76;94.20;101796.16;5041444;28;19931;-75
2022/11/02 11:31:09;;;;;;;;;;;;;;;11.77;94.93;101792.56;5055937;28;19924;-77
2022/11/02 11:33:50;;;;;;;;;;;;;;;11.74;96.18;101794.47;5026558;28;20019;-76
2022/11/02 11:36:20;;;;;;;;;;;;;;;11.72;97.66;101797.16;5026802;28;19929;-76
2022/11/02 11:38:46;;;;;;;;;;;;;;;11.73;95.78;101800.69;5041707;28;19932;-76
2022/11/02 11:41:11;;;;;;;;;;;;;;;11.76;94.99;101793.50;5043299;28;20283;-76
2022/11/02 11:43:38;;;;;;;;;;;;;;;11.79;93.77;101796.06;5042591;28;20280;-75
2022/11/02 11:46:04;;;;;;;;;;;;;;;11.84;96.33;101795.91;5026695;28;19975;-76
2022/11/02 11:48:29;;;;;;;;;;;;;;;11.86;97.72;101799.34;5039671;28;20632;-76
2022/11/02 11:50:55;;;;;;;;;;;;;;;11.86;97.19;101790.50;5032349;28;19943;-77
2022/11/02 11:53:21;;;;;;;;;;;;;;;11.86;96.66;101793.16;5015301;28;20303;-77
2022/11/02 11:55:47;;;;;;;;;;;;;;;11.82;98.13;101795.94;5023007;28;20015;-77
2022/11/02 11:58:26;;;;;;;;;;;;;;;11.79;96.70;101796.06;5027024;28;19978;-76
2022/11/02 12:01:00;;;;;;;;;;;;;;;11.79;97.12;101793.41;5041140;28;19931;-76
2022/11/02 12:03:25;;;;;;;;;;;;;;;11.81;97.91;101786.25;5042263;28;19952;-76
2022/11/02 12:06:00;;;;;;;;;;;;;;;11.85;99.32;101794.09;5041653;28;20035;-76
2022/11/02 12:08:31;;;;;;;;;;;;;;;11.89;99.09;101801.91;5041316;28;19979;-75
2022/11/02 12:11:05;;;;;;;;;;;;;;;11.91;95.73;101794.75;5041861;28;19948;-76
2022/11/02 12:13:49;;;;;;;;;;;;;;;11.91;94.31;101789.44;5042362;28;19951;-77
2022/11/02 12:16:21;;;;;;;;;;;;;;;11.97;96.50;101783.03;5041774;28;19956;-76
2022/11/02 12:18:46;;;;;;;;;;;;;;;12.03;95.08;101792.56;5026084;28;20185;-76
2022/11/02 12:21:21;;;;;;;;;;;;;;;12.09;95.97;101779.09;5042297;28;19987;-77
2022/11/02 12:23:50;;;;;;;;;;;;;;;12.12;96.28;101781.66;5056780;28;20031;-77
2022/11/02 12:26:42;;;;;;;;;;;;;;;12.14;94.72;101781.59;5042362;28;19925;-76
2022/11/02 12:29:17;;;;;;;;;;;;;;;12.19;95.94;101782.28;5023727;28;19935;-78
2022/11/02 12:31:43;;;;;;;;;;;;;;;12.21;95.78;101776.00;5042427;28;19966;-76
2022/11/02 12:34:27;;;;;;;;;;;;;;;12.25;97.16;101779.38;5013266;28;21420;-76
2022/11/02 12:37:11;;;;;;;;;;;;;;;12.25;94.27;101782.03;5025480;28;19940;-77
2022/11/02 12:39:40;;;;;;;;;;;;;;;12.27;91.79;101774.91;5035107;28;20023;-77
2022/11/02 12:42:19;;;;;;;;;;;;;;;12.30;92.16;101780.09;5045417;28;19929;-75
2022/11/02 12:44:47;;;;;;;;;;;;;;;12.30;94.09;101766.81;5029488;28;19925;-76
2022/11/02 12:47:13;;;;;;;;;;;;;;;12.32;95.50;101767.63;5045245;28;20046;-76
2022/11/02 12:49:54;;;;;;;;;;;;;;;12.32;93.02;101770.28;5045102;28;19928;-76